createdAt,value
2022-08-04T00:00:00.533Z,0.68
2022-08-04T00:02:39.447Z,0.93
2022-08-04T00:05:11.681Z,0.95
2022-08-04T00:07:45.046Z,0.93
2022-08-04T00:10:18.036Z,1.17
2022-08-04T00:12:52.892Z,1.08
2022-08-04T00:15:21.017Z,0.90
2022-08-04T00:17:54.993Z,1.10
2022-08-04T00:20:23.031Z,0.80
2022-08-04T00:22:53.520Z,1.05
2022-08-04T00:25:22.490Z,0.80
2022-08-04T00:27:50.272Z,0.70
2022-08-04T00:30:18.093Z,0.68
2022-08-04T00:32:46.249Z,1.15
2022-08-04T00:35:15.378Z,0.80
2022-08-04T00:37:45.396Z,0.77
2022-08-04T00:40:25.692Z,0.93
2022-08-04T00:43:11.193Z,1.00
2022-08-04T00:48:54.072Z,0.90
2022-08-04T00:51:30.528Z,1.45
2022-08-04T00:54:07.212Z,1.00
2022-08-04T00:57:02.788Z,0.98
2022-08-04T00:59:45.718Z,1.17
2022-08-04T01:02:22.642Z,1.17
2022-08-04T01:04:58.535Z,1.52
2022-08-04T01:08:01.271Z,0.90
2022-08-04T01:10:41.714Z,1.73
2022-08-04T01:13:27.360Z,1.20
2022-08-04T01:16:05.229Z,0.98
2022-08-04T01:18:39.524Z,1.15
2022-08-04T01:21:22.833Z,1.10
2022-08-04T01:24:19.496Z,1.10
2022-08-04T01:26:58.175Z,1.23
2022-08-04T01:29:42.277Z,1.30
2022-08-04T01:32:25.431Z,1.30
2022-08-04T01:35:00.920Z,0.90
2022-08-04T01:37:46.243Z,1.70
2022-08-04T01:40:15.433Z,1.33
2022-08-04T01:42:45.469Z,1.05
2022-08-04T01:45:15.043Z,1.27
2022-08-04T01:47:49.600Z,1.15
2022-08-04T01:50:17.303Z,1.50
2022-08-04T01:52:50.729Z,1.00
2022-08-04T01:55:19.294Z,1.20
2022-08-04T01:57:49.130Z,1.42
2022-08-04T02:00:20.126Z,1.30
2022-08-04T02:02:48.460Z,1.40
2022-08-04T02:05:18.581Z,1.15
2022-08-04T02:07:57.395Z,1.27
2022-08-04T02:10:29.703Z,1.10
2022-08-04T02:13:08.710Z,1.35
2022-08-04T02:15:45.419Z,1.20
2022-08-04T02:18:20.927Z,1.17
2022-08-04T02:20:56.585Z,1.65
2022-08-04T02:23:31.142Z,1.35
2022-08-04T02:26:01.732Z,1.30
2022-08-04T02:28:35.647Z,1.35
2022-08-04T02:31:19.732Z,1.50
2022-08-04T02:33:53.787Z,1.10
2022-08-04T02:36:31.675Z,1.30
2022-08-04T02:39:01.782Z,1.40
2022-08-04T02:41:30.965Z,0.93
2022-08-04T02:44:00.561Z,1.30
2022-08-04T02:46:30.432Z,1.50
2022-08-04T02:48:58.673Z,1.30
2022-08-04T02:51:29.622Z,1.30
2022-08-04T02:54:00.184Z,1.20
2022-08-04T02:56:31.082Z,1.23
2022-08-04T02:59:02.295Z,0.90
2022-08-04T03:01:31.641Z,1.20
2022-08-04T03:04:24.262Z,1.20
2022-08-04T03:07:26.127Z,1.17
2022-08-04T03:10:31.326Z,1.45
2022-08-04T03:13:26.297Z,1.23
2022-08-04T03:16:04.240Z,1.30
2022-08-04T03:19:01.052Z,1.13
2022-08-04T03:22:10.151Z,1.15
2022-08-04T03:25:09.167Z,1.35
2022-08-04T03:28:15.235Z,1.33
2022-08-04T03:30:59.569Z,1.27
2022-08-04T03:33:51.794Z,1.20
2022-08-04T03:36:54.586Z,1.50
2022-08-04T03:42:35.180Z,1.33
2022-08-04T03:45:35.390Z,1.15
2022-08-04T03:48:40.893Z,1.40
2022-08-04T03:51:44.003Z,1.30
2022-08-04T03:54:43.502Z,1.40
2022-08-04T03:57:33.277Z,1.48
2022-08-04T04:00:08.619Z,1.20
2022-08-04T04:03:26.725Z,1.60
2022-08-04T04:06:30.422Z,1.40
2022-08-04T04:09:20.435Z,1.25
2022-08-04T04:12:13.851Z,1.20
2022-08-04T04:14:57.430Z,1.25
2022-08-04T04:17:52.504Z,1.70
2022-08-04T04:20:40.517Z,1.50
2022-08-04T04:23:24.926Z,1.50
2022-08-04T04:26:07.388Z,1.98
2022-08-04T04:31:34.498Z,1.42
2022-08-04T04:34:13.960Z,1.70
2022-08-04T04:36:51.175Z,1.40
2022-08-04T04:39:32.720Z,1.75
2022-08-04T04:42:15.974Z,1.52
2022-08-04T04:45:23.189Z,1.83
2022-08-04T04:48:08.181Z,1.40
2022-08-04T04:50:48.195Z,1.40
2022-08-04T04:53:25.080Z,1.40
2022-08-04T04:55:57.734Z,1.25
2022-08-04T04:58:26.532Z,1.58
2022-08-04T05:01:19.537Z,1.73
2022-08-04T05:04:23.665Z,3.30
2022-08-04T05:07:07.502Z,2.53
2022-08-04T05:09:53.238Z,2.28
2022-08-04T05:14:35.372Z,2.53
2022-08-04T05:15:45.017Z,2.75
2022-08-04T05:18:20.418Z,2.63
2022-08-04T05:20:52.981Z,2.38
2022-08-04T05:23:25.753Z,2.20
2022-08-04T05:25:59.773Z,2.03
2022-08-04T05:28:34.154Z,2.25
2022-08-04T05:31:06.433Z,2.70
2022-08-04T05:36:20.766Z,2.80
2022-08-04T05:38:59.913Z,3.65
2022-08-04T05:41:32.290Z,3.10
2022-08-04T05:44:13.090Z,3.00
2022-08-04T05:46:41.587Z,2.53
2022-08-04T05:49:12.727Z,1.92
2022-08-04T05:51:50.577Z,1.58
2022-08-04T05:54:21.960Z,1.88
2022-08-04T05:56:50.842Z,2.10
2022-08-04T05:59:20.607Z,1.80
2022-08-04T06:01:56.530Z,1.85
2022-08-04T06:04:31.427Z,2.17
2022-08-04T06:06:59.158Z,2.20
2022-08-04T06:09:27.013Z,1.95
2022-08-04T06:12:03.948Z,1.70
2022-08-04T06:14:36.876Z,1.60
2022-08-04T06:20:17.886Z,1.63
2022-08-04T06:22:47.258Z,2.05
2022-08-04T06:25:20.424Z,1.52
2022-08-04T06:27:50.317Z,1.70
2022-08-04T06:30:19.454Z,1.98
2022-08-04T06:32:55.479Z,1.70
2022-08-04T06:35:34.572Z,1.73
2022-08-04T06:38:03.756Z,1.70
2022-08-04T06:40:34.053Z,1.70
2022-08-04T06:43:03.781Z,1.70
2022-08-04T06:45:34.273Z,1.80
2022-08-04T06:48:03.633Z,1.45
2022-08-04T06:51:32.023Z,1.67
2022-08-04T06:53:20.950Z,2.15
2022-08-04T06:55:50.177Z,1.70
2022-08-04T06:58:19.652Z,1.35
2022-08-04T07:00:48.939Z,1.70
2022-08-04T07:03:18.999Z,1.77
2022-08-04T07:05:49.650Z,1.30
2022-08-04T07:08:17.776Z,1.70
2022-08-04T07:10:46.033Z,1.70
2022-08-04T07:13:14.051Z,1.73
2022-08-04T07:15:45.334Z,1.63
2022-08-04T07:18:13.178Z,2.08
2022-08-04T07:20:42.802Z,1.52
2022-08-04T07:23:13.754Z,1.85
2022-08-04T07:25:59.130Z,1.83
2022-08-04T07:28:31.303Z,1.85
2022-08-04T07:30:59.499Z,1.60
2022-08-04T07:33:27.369Z,1.77
2022-08-04T07:36:05.269Z,2.95
2022-08-04T07:38:48.693Z,1.75
2022-08-04T07:41:38.494Z,2.10
2022-08-04T07:44:07.765Z,2.20
2022-08-04T07:46:35.470Z,1.25
2022-08-04T07:49:04.121Z,1.60
2022-08-04T07:51:31.832Z,1.95
2022-08-04T07:54:03.305Z,1.95
2022-08-04T07:56:31.560Z,1.38
2022-08-04T07:59:00.478Z,1.35
2022-08-04T08:01:28.658Z,1.10
2022-08-04T08:03:58.268Z,1.50
2022-08-04T08:06:32.070Z,1.33
2022-08-04T08:09:13.308Z,2.17
2022-08-04T08:12:36.409Z,1.20
2022-08-04T08:14:30.253Z,1.40
2022-08-04T08:16:59.187Z,1.52
2022-08-04T08:19:26.791Z,1.40
2022-08-04T08:21:59.024Z,1.55
2022-08-04T08:24:29.529Z,1.05
2022-08-04T08:26:57.202Z,1.30
2022-08-04T08:29:25.680Z,1.23
2022-08-04T08:31:57.072Z,1.00
2022-08-04T08:34:28.128Z,1.17
2022-08-04T08:37:02.516Z,1.00
2022-08-04T08:39:37.057Z,1.17
2022-08-04T08:42:29.248Z,1.30
2022-08-04T08:48:05.919Z,1.25
2022-08-04T08:51:12.405Z,0.90
2022-08-04T08:53:53.916Z,1.17
2022-08-04T08:56:33.446Z,1.00
2022-08-04T08:59:37.725Z,1.33
2022-08-04T09:02:29.638Z,0.82
2022-08-04T09:05:22.419Z,1.10
2022-08-04T09:08:09.009Z,0.93
2022-08-04T09:10:44.166Z,1.00
2022-08-04T09:13:21.200Z,0.65
2022-08-04T09:15:58.132Z,1.25
2022-08-04T09:18:29.341Z,0.77
2022-08-04T09:21:03.344Z,1.00
2022-08-04T09:23:42.175Z,0.90
2022-08-04T09:26:14.063Z,0.90
2022-08-04T09:28:54.480Z,0.90
2022-08-04T09:31:25.533Z,1.02
2022-08-04T09:34:02.666Z,0.70
2022-08-04T09:36:36.901Z,0.82
2022-08-04T09:39:11.118Z,0.63
2022-08-04T09:41:49.686Z,1.02
2022-08-04T09:44:50.771Z,1.10
2022-08-04T09:47:25.617Z,1.27
2022-08-04T09:50:19.619Z,0.85
2022-08-04T09:52:53.574Z,0.73
2022-08-04T09:55:53.872Z,0.60
2022-08-04T09:58:29.433Z,0.70
2022-08-04T10:01:02.989Z,1.00
2022-08-04T10:03:34.974Z,0.70
2022-08-04T10:06:13.419Z,1.30
2022-08-04T10:09:00.915Z,1.30
2022-08-04T10:11:55.591Z,0.80
2022-08-04T10:14:38.761Z,0.93
2022-08-04T10:17:22.013Z,0.80
2022-08-04T10:19:58.142Z,1.33
2022-08-04T10:22:40.788Z,0.70
2022-08-04T10:26:03.351Z,0.77
2022-08-04T10:28:24.230Z,1.00
2022-08-04T10:30:56.728Z,1.02
2022-08-04T10:33:29.950Z,1.13
2022-08-04T10:36:02.760Z,1.15
2022-08-04T10:38:32.374Z,1.00
2022-08-04T10:41:07.268Z,0.90
2022-08-04T10:43:45.332Z,0.70
2022-08-04T10:46:17.436Z,1.10
2022-08-04T10:48:52.473Z,1.10
2022-08-04T10:51:26.964Z,1.00
2022-08-04T10:54:06.932Z,0.98
2022-08-04T10:56:41.815Z,0.85
2022-08-04T10:59:14.149Z,0.80
2022-08-04T11:02:02.941Z,1.08
2022-08-04T11:04:45.212Z,1.27
2022-08-04T11:07:13.744Z,0.93
2022-08-04T11:09:43.866Z,0.93
2022-08-04T11:12:17.662Z,1.40
2022-08-04T11:14:51.119Z,1.00
2022-08-04T11:17:23.678Z,0.90
2022-08-04T11:20:31.782Z,1.02
2022-08-04T11:22:56.199Z,0.90
2022-08-04T11:25:27.449Z,1.02
2022-08-04T11:28:01.385Z,1.17
2022-08-04T11:30:35.994Z,0.80
2022-08-04T11:33:16.811Z,1.30
2022-08-04T11:35:53.808Z,1.40
2022-08-04T11:38:29.156Z,0.90
2022-08-04T11:41:05.009Z,1.30
2022-08-04T11:44:00.987Z,0.98
2022-08-04T11:46:36.935Z,1.10
2022-08-04T11:49:07.956Z,1.33
2022-08-04T11:51:37.413Z,1.20
2022-08-04T11:54:06.110Z,1.40
2022-08-04T11:56:37.290Z,1.08
2022-08-04T11:59:08.445Z,0.90
2022-08-04T12:01:48.606Z,1.35
2022-08-04T12:04:23.655Z,1.40
2022-08-04T12:07:21.889Z,1.40
2022-08-04T12:09:49.921Z,1.05
2022-08-04T12:12:27.282Z,0.90
2022-08-04T12:15:04.679Z,1.48
2022-08-04T12:17:53.448Z,1.33
2022-08-04T12:20:34.348Z,0.95
2022-08-04T12:23:16.619Z,1.35
2022-08-04T12:25:48.674Z,1.33
2022-08-04T12:28:23.477Z,1.13
2022-08-04T12:31:00.854Z,0.75
2022-08-04T12:34:02.897Z,1.00
2022-08-04T12:36:30.615Z,1.15
2022-08-04T12:39:10.424Z,0.90
2022-08-04T12:41:41.728Z,1.20
2022-08-04T12:44:36.999Z,1.10
2022-08-04T12:47:27.810Z,1.10
2022-08-04T12:49:56.186Z,1.55
2022-08-04T12:53:00.961Z,1.05
2022-08-04T12:55:22.156Z,0.88
2022-08-04T12:57:52.140Z,1.10
2022-08-04T13:00:31.231Z,1.20
2022-08-04T13:03:10.206Z,1.35
2022-08-04T13:05:39.933Z,1.25
2022-08-04T13:08:09.277Z,1.10
2022-08-04T13:10:41.708Z,1.10
2022-08-04T13:13:16.940Z,1.23
2022-08-04T13:15:46.769Z,1.05
2022-08-04T13:18:15.991Z,1.38
2022-08-04T13:20:45.003Z,1.33
2022-08-04T13:23:20.171Z,1.42
2022-08-04T13:28:44.174Z,1.05
2022-08-04T13:30:25.368Z,0.95
2022-08-04T13:31:16.887Z,1.25
2022-08-04T13:33:46.823Z,1.50
2022-08-04T13:36:15.752Z,1.23
2022-08-04T13:38:49.774Z,1.25
2022-08-04T13:41:19.733Z,1.40
2022-08-04T13:44:17.380Z,1.10
2022-08-04T14:26:59.662Z,1.10
2022-08-04T14:29:37.741Z,1.33
2022-08-04T14:32:12.708Z,0.85
2022-08-04T14:34:45.014Z,1.00
2022-08-04T14:37:18.268Z,1.40
2022-08-04T16:25:48.322Z,1.80
2022-08-04T16:28:41.725Z,1.35
2022-08-04T16:31:11.124Z,1.77
2022-08-04T16:33:43.735Z,1.80
2022-08-04T16:36:16.624Z,1.63
2022-08-04T16:39:02.111Z,1.65
2022-08-04T16:41:44.609Z,1.55
2022-08-04T16:44:52.073Z,1.67
2022-08-04T16:47:58.408Z,1.75
2022-08-04T16:50:25.911Z,2.20
2022-08-04T16:52:55.632Z,2.10
2022-08-04T16:55:24.353Z,1.58
2022-08-04T16:57:55.165Z,2.40
2022-08-04T17:00:31.174Z,4.35
2022-08-04T17:02:58.799Z,3.17
2022-08-04T17:05:39.804Z,2.33
2022-08-04T17:10:56.356Z,1.73
2022-08-04T17:14:03.190Z,3.45
2022-08-04T17:18:47.870Z,2.80
2022-08-04T17:21:20.382Z,2.72
2022-08-04T17:24:14.102Z,3.00
2022-08-04T17:26:51.635Z,1.90
2022-08-04T17:29:43.922Z,1.83
2022-08-04T17:32:17.249Z,1.77
2022-08-04T17:34:48.693Z,2.15
2022-08-04T17:37:40.770Z,2.28
2022-08-04T17:40:10.389Z,2.08
2022-08-04T17:42:40.283Z,1.70
2022-08-04T17:48:00.428Z,7.45
2022-08-04T17:50:34.728Z,3.45
2022-08-04T17:53:12.074Z,2.92
2022-08-04T17:55:41.400Z,1.73
2022-08-04T17:58:21.925Z,1.55
2022-08-04T18:03:51.664Z,1.40
2022-08-04T18:06:35.005Z,2.17
2022-08-04T18:09:57.735Z,1.90
2022-08-04T18:11:56.311Z,2.15
2022-08-04T18:14:25.977Z,1.90
2022-08-04T18:16:57.885Z,1.85
2022-08-04T18:19:25.469Z,1.75
2022-08-04T18:21:59.550Z,1.65
2022-08-04T18:24:35.726Z,2.20
2022-08-04T18:27:18.661Z,1.95
2022-08-04T18:29:50.188Z,1.90
2022-08-04T18:32:35.664Z,2.30
2022-08-04T18:35:07.351Z,2.03
2022-08-04T18:38:06.888Z,2.17
2022-08-04T18:40:31.121Z,2.28
2022-08-04T18:43:06.610Z,2.50
2022-08-04T18:45:35.100Z,2.38
2022-08-04T18:48:14.458Z,2.08
2022-08-04T18:51:08.770Z,2.05
2022-08-04T18:53:34.747Z,1.90
2022-08-04T18:56:03.667Z,2.53
2022-08-04T18:58:33.810Z,1.98
2022-08-04T19:01:01.496Z,1.88
2022-08-04T19:03:33.146Z,2.35
2022-08-04T19:06:02.180Z,2.35
2022-08-04T19:08:34.193Z,2.03
2022-08-04T19:11:38.193Z,2.10
2022-08-04T19:13:54.836Z,2.15
2022-08-04T19:16:27.272Z,1.90
2022-08-04T19:18:57.446Z,2.00
2022-08-04T19:22:01.220Z,1.52
2022-08-04T19:24:32.094Z,2.80
2022-08-04T19:27:02.260Z,2.30
2022-08-04T19:29:37.563Z,2.13
2022-08-04T19:32:14.047Z,1.98
2022-08-04T19:34:46.234Z,1.88
2022-08-04T19:40:02.501Z,2.00
2022-08-04T19:42:32.213Z,1.95
2022-08-04T19:44:59.699Z,2.00
2022-08-04T19:48:16.558Z,1.90
2022-08-04T19:50:16.388Z,1.85
2022-08-04T19:52:45.894Z,2.17
2022-08-04T19:55:22.274Z,2.30
2022-08-04T19:57:50.806Z,2.03
2022-08-04T20:00:33.110Z,2.00
2022-08-04T20:03:01.874Z,1.75
2022-08-04T20:05:52.675Z,2.10
2022-08-04T20:08:19.540Z,1.83
2022-08-04T20:10:51.564Z,2.55
2022-08-04T20:13:20.078Z,2.08
2022-08-04T20:15:50.471Z,2.20
2022-08-04T20:18:35.579Z,2.13
2022-08-04T20:21:19.645Z,2.33
2022-08-04T20:23:52.002Z,2.20
2022-08-04T20:26:19.516Z,2.20
2022-08-04T20:28:52.606Z,2.40
2022-08-04T20:31:23.563Z,3.22
2022-08-04T20:33:59.269Z,2.22
2022-08-04T20:36:28.177Z,2.10
2022-08-04T20:38:55.688Z,2.10
2022-08-04T20:41:23.460Z,2.03
2022-08-04T20:43:51.236Z,2.17
2022-08-04T20:46:29.042Z,2.13
2022-08-04T20:48:57.567Z,2.17
2022-08-04T20:51:32.055Z,2.20
2022-08-04T20:54:04.137Z,2.10
2022-08-04T20:56:50.690Z,2.35
2022-08-04T20:59:18.868Z,1.98
2022-08-04T21:01:48.984Z,2.10
2022-08-04T21:04:32.661Z,2.15
2022-08-04T21:07:01.484Z,2.33
2022-08-04T21:09:38.576Z,2.42
2022-08-04T21:12:28.225Z,2.47
2022-08-04T21:14:57.765Z,2.30
2022-08-04T21:17:59.043Z,2.58
2022-08-04T21:20:13.930Z,1.92
2022-08-04T21:22:41.636Z,2.03
2022-08-04T21:25:16.415Z,2.33
2022-08-04T21:27:44.457Z,2.20
2022-08-04T21:30:23.910Z,2.28
2022-08-04T21:32:53.007Z,3.42
2022-08-04T21:35:22.536Z,2.50
2022-08-04T21:38:16.192Z,2.35
2022-08-04T21:40:53.545Z,2.38
2022-08-04T21:43:23.561Z,2.15
2022-08-04T21:45:55.873Z,2.30
2022-08-04T21:48:27.696Z,2.50
2022-08-04T21:50:55.631Z,2.90
2022-08-04T21:53:24.864Z,2.53
2022-08-04T21:58:44.733Z,2.47
2022-08-04T22:01:49.845Z,2.28
2022-08-04T22:04:00.828Z,2.80
2022-08-04T22:06:29.279Z,2.47
2022-08-04T22:08:57.343Z,3.17
2022-08-04T22:11:48.625Z,2.50
2022-08-04T22:14:17.881Z,2.55
2022-08-04T22:16:57.349Z,2.30
2022-08-04T22:19:40.916Z,2.78
2022-08-04T22:22:24.423Z,2.40
2022-08-04T22:24:52.668Z,2.40
2022-08-04T22:27:35.477Z,2.70
2022-08-04T22:30:09.266Z,2.40
2022-08-04T22:32:44.619Z,2.67
2022-08-04T22:35:44.320Z,2.22
2022-08-04T22:38:06.301Z,2.30
2022-08-04T22:40:50.163Z,2.67
2022-08-04T22:43:32.052Z,2.70
2022-08-04T22:48:31.889Z,2.42
2022-08-04T22:50:59.941Z,2.58
2022-08-04T22:53:27.512Z,2.78
2022-08-04T22:56:07.143Z,2.50
2022-08-04T22:58:40.776Z,2.35
2022-08-04T23:01:15.030Z,2.60
2022-08-04T23:03:50.970Z,2.25
2022-08-04T23:06:24.264Z,2.70
2022-08-04T23:08:52.572Z,2.75
2022-08-04T23:11:20.272Z,2.53
2022-08-04T23:13:49.621Z,2.80
2022-08-04T23:16:18.951Z,2.63
2022-08-04T23:18:49.117Z,2.55
2022-08-04T23:21:17.425Z,1.98
2022-08-04T23:24:00.693Z,2.75
2022-08-04T23:26:30.700Z,2.35
2022-08-04T23:28:59.678Z,2.80
2022-08-04T23:31:41.080Z,2.80
2022-08-04T23:34:19.277Z,2.45
2022-08-04T23:36:47.478Z,2.25
2022-08-04T23:39:15.338Z,2.42
2022-08-04T23:41:53.452Z,2.40
2022-08-04T23:44:27.080Z,2.53
2022-08-04T23:47:00.218Z,2.60
2022-08-04T23:52:23.169Z,2.33
2022-08-04T23:54:58.229Z,2.13
2022-08-04T23:57:31.371Z,2.22
